Time;durP1;ratioP1;P1;durP2;ratioP2;P2;SDS_P1;SDS_P2;PMS_P1;PMS_P2;Temp;Humidity;BMP_temperature;BMP_pressure;BME280_temperature;BME280_humidity;BME280_pressure;Samples;Min_cycle;Max_cycle;Signal;HPM_P1;HPM_P2
2022/06/19 00:00:14;;;;;;;22.00;4.47;;;20.00;99.90;;;;;;5028879;28;20339;-53
2022/06/19 00:02:44;;;;;;;25.25;4.50;;;20.00;99.90;;;;;;5028659;28;20076;-53
2022/06/19 00:05:12;;;;;;;15.77;5.07;;;19.90;99.90;;;;;;5033093;28;20125;-51
2022/06/19 00:07:39;;;;;;;23.95;5.35;;;19.90;99.90;;;;;;5034126;28;20044;-52
2022/06/19 00:10:08;;;;;;;20.17;4.40;;;19.90;99.90;;;;;;5032420;28;20041;-52
2022/06/19 00:12:35;;;;;;;16.67;3.90;;;19.80;99.90;;;;;;5036137;28;20473;-53
2022/06/19 00:15:03;;;;;;;26.58;5.22;;;19.80;99.90;;;;;;5036966;28;20052;-53
2022/06/19 00:17:30;;;;;;;26.75;4.63;;;19.80;99.90;;;;;;5036929;28;20052;-53
2022/06/19 00:19:57;;;;;;;13.98;4.00;;;19.80;99.90;;;;;;5036765;28;20049;-52
2022/06/19 00:22:24;;;;;;;11.48;3.47;;;19.70;99.90;;;;;;5037232;28;20068;-53
2022/06/19 00:24:50;;;;;;;16.98;4.50;;;19.70;99.90;;;;;;5037015;28;20632;-54
2022/06/19 00:27:17;;;;;;;19.10;4.60;;;19.70;99.90;;;;;;5036336;28;20550;-53
2022/06/19 00:29:45;;;;;;;22.05;4.32;;;19.70;99.90;;;;;;5036376;28;20044;-52
2022/06/19 00:32:13;;;;;;;24.48;4.47;;;19.70;99.90;;;;;;5036451;28;20071;-53
2022/06/19 00:34:40;;;;;;;27.30;5.15;;;19.70;99.90;;;;;;5036924;28;20041;-53
2022/06/19 00:37:07;;;;;;;24.02;5.25;;;19.80;99.90;;;;;;5036647;28;20880;-54
2022/06/19 00:39:39;;;;;;;13.65;4.40;;;19.80;99.90;;;;;;5034202;28;20052;-53
2022/06/19 00:42:12;;;;;;;19.92;6.07;;;19.70;99.90;;;;;;5036368;28;20055;-50
2022/06/19 00:44:39;;;;;;;24.65;4.88;;;19.70;99.90;;;;;;5037182;28;20123;-53
2022/06/19 00:47:22;;;;;;;15.05;5.10;;;19.80;99.90;;;;;;5036033;28;20039;-50
2022/06/19 00:49:52;;;;;;;16.45;3.92;;;19.80;99.90;;;;;;5035268;28;20187;-54
2022/06/19 00:52:22;;;;;;;12.18;3.70;;;19.80;99.90;;;;;;5035981;28;20102;-53
2022/06/19 00:54:50;;;;;;;24.13;4.40;;;19.70;99.90;;;;;;5036637;28;20098;-51
2022/06/19 00:57:22;;;;;;;28.38;5.07;;;19.70;99.90;;;;;;5036037;28;20706;-53
2022/06/19 01:00:08;;;;;;;14.60;4.13;;;19.70;99.90;;;;;;5035126;28;20045;-54
2022/06/19 01:02:41;;;;;;;21.20;4.75;;;19.70;99.90;;;;;;5031156;28;20131;-53
2022/06/19 01:05:11;;;;;;;12.45;3.65;;;19.70;99.90;;;;;;5035969;28;20136;-52
2022/06/19 01:07:40;;;;;;;21.33;4.70;;;19.70;99.90;;;;;;5034935;28;20138;-51
2022/06/19 01:10:08;;;;;;;21.20;4.57;;;19.60;99.90;;;;;;5033589;28;20044;-52
2022/06/19 01:12:35;;;;;;;32.22;5.13;;;19.60;99.90;;;;;;5034565;28;20118;-53
2022/06/19 01:15:06;;;;;;;13.02;4.13;;;19.60;99.90;;;;;;5035544;28;20052;-51
2022/06/19 01:17:34;;;;;;;16.70;5.55;;;19.60;99.90;;;;;;5035612;28;20053;-53
2022/06/19 01:20:05;;;;;;;16.25;4.65;;;19.70;99.90;;;;;;5034961;28;20055;-52
2022/06/19 01:22:40;;;;;;;16.35;4.43;;;19.70;99.90;;;;;;5035762;28;20049;-50
2022/06/19 01:25:12;;;;;;;17.88;4.47;;;19.70;99.90;;;;;;5033491;28;20052;-52
2022/06/19 01:30:31;;;;;;;21.20;4.90;;;19.70;99.90;;;;;;5035014;28;20055;-53
2022/06/19 01:33:00;;;;;;;27.52;5.47;;;19.80;99.90;;;;;;5035488;28;20048;-53
2022/06/19 01:35:30;;;;;;;23.80;5.78;;;19.80;99.90;;;;;;5034373;28;20047;-53
2022/06/19 01:38:13;;;;;;;12.32;4.90;;;19.90;99.80;;;;;;5035205;28;20900;-53
2022/06/19 01:40:43;;;;;;;11.27;4.63;;;20.00;99.70;;;;;;5034816;28;20052;-53
2022/06/19 01:43:10;;;;;;;15.85;4.43;;;20.10;99.90;;;;;;5015313;28;20044;-53
2022/06/19 01:45:45;;;;;;;17.10;4.93;;;20.00;99.90;;;;;;5015765;28;20053;-53
2022/06/19 01:48:12;;;;;;;14.60;4.45;;;20.00;99.90;;;;;;5029947;28;20138;-52
2022/06/19 01:50:40;;;;;;;14.15;4.10;;;20.00;99.90;;;;;;5035567;28;20102;-53
2022/06/19 01:53:56;;;;;;;12.93;4.32;;;20.00;99.90;;;;;;5033429;28;20502;-53
2022/06/19 01:56:24;;;;;;;13.45;5.13;;;19.90;99.90;;;;;;5031876;28;20057;-52
2022/06/19 01:58:57;;;;;;;15.40;4.18;;;19.80;99.90;;;;;;5034251;28;20504;-52
2022/06/19 02:01:24;;;;;;;19.08;6.15;;;19.80;99.90;;;;;;5033393;28;20052;-51
2022/06/19 02:03:57;;;;;;;13.93;4.13;;;19.70;99.90;;;;;;5031984;28;20131;-53
2022/06/19 02:06:28;;;;;;;16.73;4.60;;;19.70;99.90;;;;;;5035023;28;20056;-53
2022/06/19 02:08:55;;;;;;;14.25;4.65;;;19.70;99.90;;;;;;5033557;28;20094;-52
2022/06/19 02:11:23;;;;;;;12.88;4.28;;;19.70;99.90;;;;;;5034596;28;20756;-52
2022/06/19 02:13:50;;;;;;;17.52;3.72;;;19.70;99.90;;;;;;5034873;28;20025;-51
2022/06/19 02:16:20;;;;;;;18.38;4.32;;;19.70;99.90;;;;;;5034066;28;20037;-53
2022/06/19 02:18:49;;;;;;;9.10;3.78;;;19.70;99.90;;;;;;5034632;28;20045;-53
2022/06/19 02:21:21;;;;;;;12.80;4.70;;;19.70;99.90;;;;;;5034130;28;20040;-53
2022/06/19 02:23:50;;;;;;;20.50;5.47;;;19.70;99.90;;;;;;5034693;28;20079;-50
2022/06/19 02:26:17;;;;;;;16.35;4.68;;;19.70;99.90;;;;;;5033608;28;20110;-53
2022/06/19 02:28:49;;;;;;;11.65;4.35;;;19.60;99.90;;;;;;5034516;28;20053;-52
2022/06/19 02:31:16;;;;;;;12.05;4.47;;;19.60;99.90;;;;;;5033193;28;20580;-53
2022/06/19 02:33:53;;;;;;;18.52;4.55;;;19.60;99.90;;;;;;5034646;28;20045;-51
2022/06/19 02:36:40;;;;;;;23.88;5.72;;;19.60;99.90;;;;;;5034255;28;20033;-53
2022/06/19 02:39:21;;;;;;;15.93;4.83;;;19.50;99.90;;;;;;5033907;28;20045;-52
2022/06/19 02:42:20;;;;;;;24.02;5.15;;;19.50;99.90;;;;;;5032336;28;20101;-52
2022/06/19 02:44:49;;;;;;;30.05;7.47;;;19.50;99.90;;;;;;5008781;28;20065;-53
2022/06/19 02:47:16;;;;;;;15.35;4.78;;;19.50;99.90;;;;;;5033743;28;20040;-52
2022/06/19 02:49:43;;;;;;;22.25;6.28;;;19.50;99.90;;;;;;5033049;28;20041;-53
2022/06/19 02:52:12;;;;;;;17.23;4.00;;;19.50;99.90;;;;;;5015485;28;20056;-52
2022/06/19 02:54:39;;;;;;;26.42;4.35;;;19.50;99.90;;;;;;5033023;28;20041;-53
2022/06/19 02:57:09;;;;;;;14.48;4.20;;;19.50;99.90;;;;;;5034266;28;20525;-53
2022/06/19 02:59:36;;;;;;;16.73;4.65;;;19.50;99.90;;;;;;5015585;28;20052;-52
2022/06/19 03:02:04;;;;;;;16.95;5.47;;;19.50;99.90;;;;;;5030194;28;20069;-52
2022/06/19 03:04:35;;;;;;;26.48;5.90;;;19.50;99.90;;;;;;5030249;28;20057;-52
2022/06/19 03:07:02;;;;;;;24.67;5.68;;;19.50;99.90;;;;;;5032173;28;20088;-52
2022/06/19 03:09:29;;;;;;;29.27;4.72;;;19.50;99.90;;;;;;5031794;28;20049;-51
2022/06/19 03:11:56;;;;;;;16.30;6.10;;;19.50;99.90;;;;;;5033801;28;20689;-53
2022/06/19 03:14:24;;;;;;;17.48;4.93;;;19.50;99.90;;;;;;5033688;28;20733;-52
2022/06/19 03:16:51;;;;;;;12.40;3.97;;;19.50;99.90;;;;;;5034155;28;20041;-51
2022/06/19 03:19:18;;;;;;;13.07;5.03;;;19.50;99.90;;;;;;5032583;28;20732;-52
2022/06/19 03:21:45;;;;;;;16.50;4.50;;;19.50;99.90;;;;;;5033323;28;20059;-52
2022/06/19 03:24:12;;;;;;;18.50;4.95;;;19.40;99.90;;;;;;5034435;28;20072;-53
2022/06/19 03:26:39;;;;;;;28.10;4.63;;;19.40;99.90;;;;;;5033496;28;20056;-53
2022/06/19 03:29:05;;;;;;;15.60;4.93;;;19.40;99.90;;;;;;5032120;28;20041;-54
2022/06/19 03:31:32;;;;;;;18.48;4.93;;;19.40;99.90;;;;;;5033345;28;20048;-51
2022/06/19 03:33:59;;;;;;;33.78;4.97;;;19.40;99.90;;;;;;5033180;28;20124;-52
2022/06/19 03:36:26;;;;;;;17.95;4.82;;;19.30;99.90;;;;;;5033380;28;20060;-50
2022/06/19 03:38:53;;;;;;;29.45;5.38;;;19.40;99.90;;;;;;5032330;28;20051;-51
2022/06/19 03:41:20;;;;;;;16.77;4.22;;;19.30;99.90;;;;;;5033333;28;20064;-52
2022/06/19 03:43:47;;;;;;;12.40;3.75;;;19.30;99.90;;;;;;5033325;28;20555;-51
2022/06/19 03:46:16;;;;;;;18.75;4.60;;;19.30;99.90;;;;;;5034026;28;20053;-52
2022/06/19 03:48:46;;;;;;;23.13;5.70;;;19.20;99.90;;;;;;5036964;28;20084;-53
2022/06/19 03:51:15;;;;;;;13.55;4.10;;;19.30;99.90;;;;;;5036139;28;20048;-52
2022/06/19 03:53:45;;;;;;;28.63;6.38;;;19.30;99.90;;;;;;5037466;28;20498;-52
2022/06/19 03:56:19;;;;;;;16.05;4.47;;;19.30;99.90;;;;;;5037769;28;20041;-53
2022/06/19 03:58:46;;;;;;;21.33;5.18;;;19.30;99.90;;;;;;5037056;28;20041;-52
2022/06/19 04:01:25;;;;;;;23.05;5.78;;;19.30;99.90;;;;;;5038068;28;20079;-52
2022/06/19 04:03:54;;;;;;;21.50;4.55;;;19.30;99.90;;;;;;5034293;28;20722;-52
2022/06/19 04:06:24;;;;;;;26.50;4.63;;;19.40;99.90;;;;;;5034705;28;20762;-51
2022/06/19 04:08:51;;;;;;;18.50;4.72;;;19.40;99.90;;;;;;5036881;28;20526;-52
2022/06/19 04:11:20;;;;;;;28.50;5.45;;;19.40;99.90;;;;;;5035444;28;20045;-53
2022/06/19 04:13:47;;;;;;;21.05;4.63;;;19.50;99.90;;;;;;5037103;28;20051;-51
2022/06/19 04:16:20;;;;;;;13.32;4.78;;;19.50;99.90;;;;;;5036797;28;20033;-52
2022/06/19 04:18:49;;;;;;;22.90;5.78;;;19.50;99.90;;;;;;5017590;28;20052;-54
2022/06/19 04:21:24;;;;;;;17.25;4.70;;;19.50;99.90;;;;;;5016611;28;20067;-50
2022/06/19 04:23:54;;;;;;;13.63;4.13;;;19.60;99.90;;;;;;5017740;28;20500;-51
2022/06/19 04:26:22;;;;;;;21.30;5.30;;;19.60;99.90;;;;;;5017738;28;20060;-53
2022/06/19 04:28:49;;;;;;;19.77;4.47;;;19.60;99.90;;;;;;5036055;28;20056;-52
2022/06/19 04:31:16;;;;;;;12.98;4.20;;;19.60;99.90;;;;;;5036222;28;20335;-50
2022/06/19 04:33:44;;;;;;;18.13;4.50;;;19.60;99.90;;;;;;5035305;28;20079;-52
2022/06/19 04:36:14;;;;;;;16.30;4.47;;;19.60;99.90;;;;;;5035240;28;20048;-51
2022/06/19 04:38:43;;;;;;;13.82;4.57;;;19.60;99.90;;;;;;5036214;28;20053;-53
2022/06/19 04:41:19;;;;;;;16.50;5.13;;;19.60;99.90;;;;;;5036008;28;20095;-51
2022/06/19 04:43:46;;;;;;;11.52;4.32;;;19.60;99.90;;;;;;5036869;28;20056;-54
2022/06/19 04:46:13;;;;;;;14.30;5.32;;;19.70;99.90;;;;;;5036999;28;20056;-52
2022/06/19 04:48:40;;;;;;;10.50;3.55;;;19.80;99.90;;;;;;5036452;28;20072;-52
2022/06/19 04:51:08;;;;;;;17.92;4.57;;;19.80;99.90;;;;;;5036314;28;20045;-52
2022/06/19 04:53:37;;;;;;;17.90;4.78;;;19.80;99.90;;;;;;5034930;28;20757;-52
2022/06/19 04:56:05;;;;;;;18.13;4.38;;;19.80;99.90;;;;;;5035020;28;20110;-51
2022/06/19 04:58:32;;;;;;;13.98;4.35;;;19.90;99.90;;;;;;5034748;28;20106;-52
2022/06/19 05:01:01;;;;;;;17.05;4.90;;;20.00;99.90;;;;;;5034971;28;20069;-53
2022/06/19 05:03:28;;;;;;;14.80;4.45;;;20.00;99.90;;;;;;5035167;28;20060;-52
2022/06/19 05:06:01;;;;;;;14.00;4.55;;;20.10;99.90;;;;;;5034047;28;20072;-52
2022/06/19 05:08:28;;;;;;;17.95;4.47;;;20.20;99.90;;;;;;5036566;28;20041;-52
2022/06/19 05:10:55;;;;;;;16.98;4.05;;;20.30;99.90;;;;;;5034610;28;20040;-50
2022/06/19 05:13:22;;;;;;;19.55;4.78;;;20.30;99.90;;;;;;5036139;28;20053;-51
2022/06/19 05:15:50;;;;;;;16.83;3.95;;;20.40;99.90;;;;;;5034916;28;20087;-50
2022/06/19 05:18:18;;;;;;;17.10;3.92;;;20.50;99.90;;;;;;5035618;28;20895;-52
2022/06/19 05:20:44;;;;;;;25.33;5.22;;;20.60;99.90;;;;;;5033359;28;20041;-52
2022/06/19 05:23:12;;;;;;;17.92;4.35;;;20.70;99.90;;;;;;5034196;28;20051;-50
2022/06/19 05:25:39;;;;;;;9.40;3.92;;;20.80;99.90;;;;;;5035096;28;20037;-49
2022/06/19 05:28:06;;;;;;;17.85;5.03;;;20.90;99.90;;;;;;5035665;28;20766;-51
2022/06/19 05:30:32;;;;;;;17.42;4.18;;;21.00;99.90;;;;;;5035218;28;20434;-52
2022/06/19 05:32:59;;;;;;;10.20;4.10;;;21.10;99.90;;;;;;5035414;28;20041;-51
2022/06/19 05:35:26;;;;;;;21.00;5.40;;;21.20;99.90;;;;;;5035864;28;20578;-53
2022/06/19 05:37:53;;;;;;;11.35;3.92;;;21.30;99.90;;;;;;5033802;28;20049;-50
2022/06/19 05:40:20;;;;;;;19.63;5.55;;;21.40;99.90;;;;;;5035419;28;20048;-49
2022/06/19 05:42:47;;;;;;;21.48;5.05;;;21.50;99.90;;;;;;5035560;28;20136;-50
2022/06/19 05:45:14;;;;;;;10.25;4.10;;;21.60;99.90;;;;;;5036621;28;20053;-51
2022/06/19 05:47:41;;;;;;;10.82;4.10;;;21.70;99.90;;;;;;5035444;28;20071;-51
2022/06/19 05:50:11;;;;;;;10.75;3.65;;;21.80;99.90;;;;;;5036067;28;20056;-49
2022/06/19 05:52:38;;;;;;;12.50;3.45;;;21.90;99.90;;;;;;5035678;28;20045;-50
2022/06/19 05:55:06;;;;;;;16.85;5.05;;;22.00;99.90;;;;;;5033512;28;20048;-52
2022/06/19 05:57:33;;;;;;;17.77;4.18;;;22.10;99.90;;;;;;5035203;28;20049;-49
2022/06/19 06:00:00;;;;;;;18.08;4.18;;;22.10;99.90;;;;;;5033409;28;20562;-62
2022/06/19 06:02:37;;;;;;;10.95;3.58;;;22.20;99.90;;;;;;5035238;28;20056;-65
2022/06/19 06:05:09;;;;;;;18.40;5.13;;;22.30;99.90;;;;;;5034112;28;20128;-63
2022/06/19 06:07:36;;;;;;;15.02;4.15;;;22.40;99.90;;;;;;5030985;28;20041;-64
2022/06/19 06:10:04;;;;;;;14.55;3.97;;;22.50;99.90;;;;;;5034281;28;20562;-66
2022/06/19 06:12:31;;;;;;;21.63;5.72;;;22.60;99.90;;;;;;5034034;28;20226;-63
2022/06/19 06:14:58;;;;;;;15.75;4.10;;;22.70;99.90;;;;;;5034937;28;20068;-67
2022/06/19 06:17:24;;;;;;;13.80;5.45;;;22.90;99.90;;;;;;5034716;28;20049;-64
2022/06/19 06:19:51;;;;;;;14.70;4.15;;;23.00;99.90;;;;;;5033298;28;20136;-64
2022/06/19 06:22:18;;;;;;;13.10;4.00;;;23.10;99.90;;;;;;5032712;28;20037;-65
2022/06/19 06:24:45;;;;;;;11.50;3.67;;;23.20;99.90;;;;;;5033897;28;20045;-67
2022/06/19 06:27:12;;;;;;;13.32;4.22;;;23.30;99.90;;;;;;5033798;28;20037;-64
2022/06/19 06:29:39;;;;;;;15.30;4.88;;;23.40;99.10;;;;;;5034820;28;20075;-63
2022/06/19 06:32:06;;;;;;;13.82;4.47;;;23.50;99.10;;;;;;5034189;28;20045;-60
2022/06/19 06:34:34;;;;;;;13.68;4.22;;;23.60;99.90;;;;;;5032759;28;20042;-62
2022/06/19 06:37:00;;;;;;;13.73;4.32;;;23.70;99.90;;;;;;5035026;28;20052;-64
2022/06/19 06:39:27;;;;;;;22.05;5.20;;;23.90;99.90;;;;;;5034173;28;20053;-62
2022/06/19 06:41:54;;;;;;;19.38;4.28;;;24.00;99.90;;;;;;5034142;28;20045;-62
2022/06/19 06:44:21;;;;;;;16.55;4.68;;;24.10;99.90;;;;;;5033909;28;20067;-62
2022/06/19 06:46:47;;;;;;;16.67;4.95;;;24.30;99.70;;;;;;5034080;28;20049;-63
2022/06/19 06:49:16;;;;;;;14.05;4.93;;;24.40;98.50;;;;;;5033701;28;20132;-61
2022/06/19 06:51:43;;;;;;;9.73;4.05;;;24.50;97.50;;;;;;5034176;28;20682;-63
2022/06/19 06:54:09;;;;;;;23.63;6.13;;;24.60;97.70;;;;;;5033259;28;20682;-62
2022/06/19 06:56:36;;;;;;;15.98;4.57;;;24.80;98.50;;;;;;5034050;28;20036;-60
2022/06/19 06:59:03;;;;;;;18.80;5.22;;;24.90;97.50;;;;;;5033730;28;20055;-63
2022/06/19 07:01:32;;;;;;;13.88;3.83;;;25.00;94.80;;;;;;5032741;28;20110;-64
2022/06/19 07:03:59;;;;;;;16.27;4.95;;;25.10;94.40;;;;;;5032312;28;20813;-66
2022/06/19 07:06:29;;;;;;;14.45;4.05;;;25.30;93.60;;;;;;5024459;28;20048;-63
2022/06/19 07:08:56;;;;;;;18.08;5.00;;;25.40;92.70;;;;;;5028948;28;20048;-64
2022/06/19 07:11:39;;;;;;;21.02;5.25;;;25.60;91.90;;;;;;5029534;28;20041;-65
2022/06/19 07:14:07;;;;;;;16.67;5.10;;;25.70;88.70;;;;;;5031961;28;20312;-65
2022/06/19 07:16:34;;;;;;;18.63;6.05;;;25.80;88.60;;;;;;5029205;28;20049;-63
2022/06/19 07:19:01;;;;;;;14.52;4.50;;;25.90;86.60;;;;;;5030179;28;20045;-64
2022/06/19 07:21:29;;;;;;;17.33;5.10;;;26.00;82.90;;;;;;5026778;28;20052;-62
2022/06/19 07:23:56;;;;;;;18.30;4.50;;;26.10;79.30;;;;;;5031239;28;20041;-61
2022/06/19 07:26:25;;;;;;;14.95;4.38;;;26.30;74.30;;;;;;5012667;28;20048;-62
2022/06/19 07:28:52;;;;;;;24.08;5.20;;;26.40;74.50;;;;;;5029336;28;20067;-66
2022/06/19 07:31:26;;;;;;;18.33;4.70;;;26.50;73.70;;;;;;5029752;28;20136;-63
2022/06/19 07:33:53;;;;;;;11.15;4.32;;;26.70;73.60;;;;;;5029214;28;20098;-65
2022/06/19 07:36:22;;;;;;;18.67;4.70;;;26.80;69.10;;;;;;5027838;28;20515;-64
2022/06/19 07:38:50;;;;;;;12.85;5.30;;;27.00;66.30;;;;;;5030228;28;20122;-65
2022/06/19 07:41:16;;;;;;;20.52;4.72;;;27.10;63.50;;;;;;5030709;28;20184;-65
2022/06/19 07:43:44;;;;;;;24.25;5.68;;;27.20;57.10;;;;;;5029844;28;20076;-63
2022/06/19 07:46:11;;;;;;;14.15;5.18;;;27.40;54.60;;;;;;5030546;28;20412;-66
2022/06/19 07:51:26;;;;;;;22.08;5.95;;;27.80;53.70;;;;;;5028854;28;20043;-65
2022/06/19 07:53:58;;;;;;;15.75;5.13;;;27.90;53.50;;;;;;5030443;28;21077;-63
2022/06/19 07:56:25;;;;;;;23.38;4.57;;;28.10;52.10;;;;;;5028766;28;20045;-66
2022/06/19 07:58:52;;;;;;;19.77;4.80;;;28.20;48.70;;;;;;5031886;28;20109;-63
2022/06/19 08:01:19;;;;;;;12.65;4.78;;;28.40;47.80;;;;;;5032993;28;20049;-65
2022/06/19 08:03:46;;;;;;;14.80;4.50;;;28.50;50.20;;;;;;5014833;28;20751;-63
2022/06/19 08:06:14;;;;;;;17.35;4.88;;;28.70;47.50;;;;;;5033547;28;20103;-64
2022/06/19 08:08:41;;;;;;;23.52;4.97;;;28.90;46.50;;;;;;5027949;28;20040;-65
2022/06/19 08:11:09;;;;;;;21.38;4.80;;;29.00;46.90;;;;;;5033716;28;20644;-64
2022/06/19 08:13:36;;;;;;;29.98;5.85;;;29.00;47.80;;;;;;5031563;28;20045;-63
2022/06/19 08:16:07;;;;;;;19.95;5.35;;;29.10;47.60;;;;;;5031589;28;20694;-64
2022/06/19 08:18:35;;;;;;;15.43;5.05;;;29.20;49.40;;;;;;5032320;28;20040;-63
2022/06/19 08:21:02;;;;;;;25.42;6.43;;;29.30;49.80;;;;;;5031193;28;20301;-62
2022/06/19 08:23:29;;;;;;;16.85;5.18;;;29.50;48.00;;;;;;5033464;28;20225;-63
2022/06/19 08:25:57;;;;;;;19.15;4.47;;;29.60;45.90;;;;;;5033171;28;20041;-62
2022/06/19 08:28:28;;;;;;;22.30;4.38;;;29.80;44.30;;;;;;5032442;28;20036;-62
2022/06/19 08:30:54;;;;;;;12.65;4.50;;;30.10;42.80;;;;;;5033286;28;20052;-63
2022/06/19 08:33:21;;;;;;;18.30;5.10;;;30.30;43.30;;;;;;5034552;28;20037;-62
2022/06/19 08:35:53;;;;;;;16.58;4.78;;;30.60;42.90;;;;;;5036607;28;20041;-63
2022/06/19 08:38:27;;;;;;;23.10;5.68;;;30.80;42.30;;;;;;5036748;28;20065;-63
2022/06/19 08:41:00;;;;;;;16.52;4.43;;;31.10;43.00;;;;;;5036436;28;20045;-63
2022/06/19 08:43:36;;;;;;;16.27;4.65;;;31.30;42.90;;;;;;5037260;28;20587;-63
2022/06/19 08:46:53;;;;;;;11.00;4.53;;;31.60;45.70;;;;;;5036529;28;20404;-63
2022/06/19 08:50:06;;;;;;;11.35;4.60;;;31.90;44.20;;;;;;4993817;28;20487;-63
2022/06/19 08:53:03;;;;;;;12.55;4.20;;;32.40;43.30;;;;;;5016484;28;20053;-62
2022/06/19 08:55:44;;;;;;;22.75;4.93;;;32.70;42.00;;;;;;5024816;28;20053;-64
2022/06/19 08:58:30;;;;;;;17.65;4.90;;;33.00;43.00;;;;;;5036457;28;20033;-64
2022/06/19 09:01:22;;;;;;;15.02;4.18;;;33.30;41.40;;;;;;5035304;28;20718;-64
2022/06/19 09:07:07;;;;;;;15.25;3.63;;;33.80;37.40;;;;;;5027212;28;20060;-64
2022/06/19 09:09:53;;;;;;;29.35;4.25;;;34.10;37.80;;;;;;5026117;28;20045;-64
2022/06/19 09:12:25;;;;;;;19.45;4.75;;;34.30;31.90;;;;;;5036645;28;20033;-66
2022/06/19 09:15:11;;;;;;;13.43;4.88;;;34.40;32.00;;;;;;5037005;28;20052;-67
2022/06/19 09:17:42;;;;;;;17.10;4.68;;;34.40;32.10;;;;;;5037337;28;20048;-65
2022/06/19 09:20:41;;;;;;;23.85;4.57;;;34.40;33.20;;;;;;5036989;28;20061;-67
2022/06/19 09:23:16;;;;;;;22.17;4.93;;;34.50;34.20;;;;;;5036218;28;20052;-67
2022/06/19 09:25:57;;;;;;;16.30;5.10;;;34.70;34.90;;;;;;5035494;28;20071;-65
2022/06/19 09:28:42;;;;;;;21.27;3.88;;;34.80;36.00;;;;;;5035598;28;21919;-65
2022/06/19 09:31:18;;;;;;;26.58;5.43;;;35.00;37.10;;;;;;5036807;28;20045;-65
2022/06/19 09:34:08;;;;;;;16.17;4.43;;;35.20;34.60;;;;;;5018705;28;20606;-65
2022/06/19 09:36:51;;;;;;;21.52;4.53;;;35.30;33.40;;;;;;5036521;28;20183;-65
2022/06/19 09:39:22;;;;;;;20.88;4.30;;;35.40;32.30;;;;;;5035049;28;20528;-65
2022/06/19 09:41:56;;;;;;;14.90;4.10;;;35.50;33.20;;;;;;5036065;28;20056;-65
2022/06/19 09:44:26;;;;;;;18.52;4.50;;;35.60;36.60;;;;;;5036186;28;20827;-63
2022/06/19 09:47:11;;;;;;;16.42;4.32;;;35.80;34.00;;;;;;5035535;28;20044;-65
2022/06/19 09:50:02;;;;;;;18.13;4.70;;;35.80;30.60;;;;;;5036320;28;20084;-65
2022/06/19 09:52:43;;;;;;;22.05;6.00;;;36.00;35.20;;;;;;5035457;28;20053;-66
2022/06/19 09:55:28;;;;;;;12.10;4.60;;;36.20;34.50;;;;;;5034851;28;20029;-65
2022/06/19 09:58:04;;;;;;;13.38;5.22;;;36.30;31.80;;;;;;5035662;28;20048;-64
2022/06/19 10:00:35;;;;;;;16.83;4.28;;;36.20;32.60;;;;;;5035811;28;20064;-65
2022/06/19 10:03:39;;;;;;;21.58;4.65;;;36.10;30.80;;;;;;5041245;28;20055;-63
2022/06/19 10:06:21;;;;;;;19.02;4.57;;;36.00;34.50;;;;;;5048398;28;20040;-62
2022/06/19 10:08:53;;;;;;;20.92;4.50;;;36.20;34.00;;;;;;5047269;28;20835;-63
2022/06/19 10:11:32;;;;;;;19.50;4.43;;;36.30;35.30;;;;;;5033270;28;20782;-63
2022/06/19 10:14:25;;;;;;;21.00;5.22;;;36.50;31.40;;;;;;5034365;28;20040;-64
2022/06/19 10:17:23;;;;;;;16.70;4.57;;;36.70;32.90;;;;;;5035036;28;20036;-62
2022/06/19 10:20:09;;;;;;;17.77;4.43;;;36.80;37.00;;;;;;4996618;28;20136;-63
2022/06/19 10:23:03;;;;;;;12.80;4.68;;;36.90;36.20;;;;;;5034773;28;20052;-63
2022/06/19 10:25:44;;;;;;;20.58;3.83;;;37.00;35.40;;;;;;5034571;28;20049;-63
2022/06/19 10:28:33;;;;;;;14.85;5.53;;;37.10;35.00;;;;;;5033746;28;20110;-63
2022/06/19 10:31:05;;;;;;;23.02;5.30;;;37.30;35.10;;;;;;5034254;28;20052;-63
2022/06/19 10:33:59;;;;;;;21.42;6.63;;;37.40;39.40;;;;;;5034769;28;20045;-66
2022/06/19 10:36:32;;;;;;;25.20;5.63;;;37.40;38.70;;;;;;5032891;28;20045;-64
2022/06/19 10:39:20;;;;;;;19.05;4.90;;;37.40;36.20;;;;;;5034718;28;20052;-67
2022/06/19 10:42:06;;;;;;;15.98;4.97;;;37.40;39.50;;;;;;5033627;28;20581;-65
2022/06/19 10:45:05;;;;;;;19.75;4.75;;;37.30;37.20;;;;;;5014526;28;20049;-65
2022/06/19 10:47:45;;;;;;;23.60;5.43;;;37.30;36.40;;;;;;5024329;28;20051;-64
2022/06/19 10:50:40;;;;;;;17.50;4.97;;;37.30;38.70;;;;;;5031396;28;20049;-65
2022/06/19 10:53:40;;;;;;;17.60;4.60;;;37.30;39.80;;;;;;5034617;28;20041;-65
2022/06/19 10:56:20;;;;;;;18.92;5.38;;;37.30;40.80;;;;;;5032213;28;20041;-65
2022/06/19 10:58:47;;;;;;;31.30;4.90;;;37.20;40.50;;;;;;5033833;28;20418;-65
2022/06/19 11:04:12;;;;;;;13.60;4.85;;;36.80;39.90;;;;;;5034310;28;20132;-65
2022/06/19 11:07:06;;;;;;;23.67;5.70;;;36.70;39.90;;;;;;5033747;28;20748;-67
2022/06/19 11:09:40;;;;;;;32.45;8.45;;;36.60;40.10;;;;;;5032926;28;20051;-65
2022/06/19 11:12:33;;;;;;;20.25;4.80;;;36.60;40.20;;;;;;5030032;28;20037;-64
2022/06/19 11:15:06;;;;;;;14.55;5.03;;;36.60;39.90;;;;;;5033535;28;20570;-65
2022/06/19 11:17:39;;;;;;;17.70;6.15;;;36.60;41.20;;;;;;5033488;28;20045;-66
2022/06/19 11:20:23;;;;;;;19.95;5.55;;;36.60;41.40;;;;;;5015262;28;20990;-67
2022/06/19 11:23:00;;;;;;;18.80;5.43;;;36.50;41.40;;;;;;5033861;28;20048;-67
2022/06/19 11:25:50;;;;;;;18.70;5.20;;;36.50;40.80;;;;;;5033808;28;20060;-65
2022/06/19 11:28:17;;;;;;;21.40;5.95;;;36.50;40.40;;;;;;5032997;28;20068;-66
2022/06/19 11:30:51;;;;;;;15.35;4.97;;;36.50;41.20;;;;;;5033473;28;20970;-66
2022/06/19 11:33:35;;;;;;;31.52;5.93;;;36.50;41.80;;;;;;5033698;28;20049;-66
2022/06/19 11:36:06;;;;;;;19.05;5.10;;;36.40;41.40;;;;;;5033698;28;20044;-67
2022/06/19 11:38:45;;;;;;;15.38;4.63;;;36.40;42.40;;;;;;5033046;28;20073;-66
2022/06/19 11:41:34;;;;;;;18.45;4.68;;;36.50;41.60;;;;;;5031798;28;20033;-66
2022/06/19 11:44:06;;;;;;;21.27;5.22;;;36.50;39.70;;;;;;5033689;28;20052;-66
2022/06/19 11:46:53;;;;;;;18.60;4.82;;;36.50;39.70;;;;;;5031018;28;20048;-65
2022/06/19 11:49:36;;;;;;;20.13;6.72;;;36.70;39.50;;;;;;5033098;28;20040;-64
2022/06/19 11:52:18;;;;;;;18.02;4.50;;;36.80;39.00;;;;;;5031307;28;20045;-65
2022/06/19 11:54:48;;;;;;;17.23;5.28;;;36.90;38.70;;;;;;5033878;28;20604;-64
2022/06/19 11:57:26;;;;;;;18.88;5.85;;;37.00;39.70;;;;;;5014272;28;20036;-64
2022/06/19 11:59:56;;;;;;;24.98;5.35;;;36.90;40.40;;;;;;5032994;28;20048;-65
2022/06/19 12:02:26;;;;;;;11.70;4.70;;;36.90;39.90;;;;;;5032176;28;20045;-69
2022/06/19 12:04:57;;;;;;;19.70;5.07;;;36.80;39.80;;;;;;5041757;28;20106;-63
2022/06/19 12:07:28;;;;;;;16.70;4.70;;;36.80;39.20;;;;;;5039806;28;20446;-63
2022/06/19 12:10:17;;;;;;;16.60;5.90;;;36.80;40.20;;;;;;5044354;28;20434;-64
2022/06/19 12:12:54;;;;;;;16.35;5.95;;;36.90;39.80;;;;;;5044733;28;20044;-64
2022/06/19 12:15:31;;;;;;;19.05;4.40;;;37.10;38.80;;;;;;5044723;28;20535;-64
2022/06/19 12:18:12;;;;;;;18.98;5.10;;;37.10;38.50;;;;;;5044626;28;20665;-64
2022/06/19 12:20:42;;;;;;;23.27;6.80;;;37.20;39.00;;;;;;5044724;28;20410;-63
2022/06/19 12:23:18;;;;;;;22.63;6.18;;;37.20;38.30;;;;;;5044006;28;20056;-63
2022/06/19 12:25:49;;;;;;;;;;;37.20;39.20;;;;;;5044908;28;20044;-65
2022/06/19 12:28:34;;;;;;;18.15;5.00;;;37.30;38.70;;;;;;5039353;28;19932;-61
2022/06/19 12:31:08;;;;;;;22.80;4.38;;;37.30;38.60;;;;;;5035578;28;20549;-63
2022/06/19 12:33:52;;;;;;;24.50;5.45;;;37.40;39.10;;;;;;5036977;28;20586;-63
2022/06/19 12:36:34;;;;;;;20.30;5.55;;;37.40;39.90;;;;;;5037703;28;20168;-62
2022/06/19 12:39:03;;;;;;;14.13;5.10;;;37.50;38.70;;;;;;5030984;28;20792;-63
2022/06/19 12:41:39;;;;;;;15.77;4.70;;;37.40;38.70;;;;;;5035648;28;20068;-63
2022/06/19 12:44:22;;;;;;;20.05;5.47;;;37.40;38.70;;;;;;5037600;28;20056;-63
2022/06/19 12:46:58;;;;;;;12.45;4.82;;;37.40;38.60;;;;;;5036253;28;20156;-63
2022/06/19 12:49:43;;;;;;;17.27;5.90;;;37.50;39.10;;;;;;5038026;28;20048;-63
2022/06/19 12:52:25;;;;;;;16.63;4.55;;;37.50;38.30;;;;;;5041148;28;20037;-63
2022/06/19 12:55:27;;;;;;;19.35;4.70;;;37.60;37.10;;;;;;5044192;28;20044;-64
2022/06/19 12:58:09;;;;;;;12.68;5.13;;;37.70;38.20;;;;;;5031341;28;20049;-64
2022/06/19 13:01:04;;;;;;;13.15;4.85;;;37.70;37.70;;;;;;5043460;28;20574;-63
2022/06/19 13:04:13;;;;;;;19.42;5.40;;;37.80;38.30;;;;;;5030339;28;20114;-62
2022/06/19 13:07:07;;;;;;;23.70;5.78;;;37.80;38.80;;;;;;5034729;28;20830;-64
2022/06/19 13:09:43;;;;;;;12.82;4.57;;;37.90;38.00;;;;;;5038368;28;20068;-63
2022/06/19 13:12:35;;;;;;;11.68;5.25;;;38.00;38.20;;;;;;5019188;28;20557;-66
2022/06/19 13:15:14;;;;;;;15.65;4.75;;;38.00;37.10;;;;;;5018726;28;20049;-63
2022/06/19 13:17:53;;;;;;;19.52;5.47;;;38.00;36.90;;;;;;5029323;28;20037;-66
2022/06/19 13:20:32;;;;;;;13.70;5.90;;;38.10;35.30;;;;;;5033674;28;20059;-68